createdAt,value
2022-12-09T00:00:06.884Z,1.99
2022-12-09T00:02:33.923Z,2.04
2022-12-09T00:05:00.489Z,2.04
2022-12-09T00:07:27.250Z,1.97
2022-12-09T00:09:53.836Z,2.06
2022-12-09T00:12:20.323Z,2.10
2022-12-09T00:14:46.682Z,1.99
2022-12-09T00:17:13.443Z,2.06
2022-12-09T00:19:40.112Z,2.07
2022-12-09T00:22:06.528Z,2.04
2022-12-09T00:24:32.859Z,2.06
2022-12-09T00:26:59.314Z,1.98
2022-12-09T00:29:25.699Z,2.03
2022-12-09T00:31:52.082Z,2.01
2022-12-09T00:34:18.516Z,1.99
2022-12-09T00:36:45.026Z,1.98
2022-12-09T00:39:12.205Z,1.97
2022-12-09T00:41:38.928Z,2.04
2022-12-09T00:44:05.683Z,2.13
2022-12-09T00:46:32.349Z,2.10
2022-12-09T00:48:58.792Z,2.03
2022-12-09T00:51:25.684Z,2.07
2022-12-09T00:53:55.615Z,2.11
2022-12-09T00:56:24.251Z,2.11
2022-12-09T00:58:50.604Z,2.06
2022-12-09T01:01:17.031Z,2.12
2022-12-09T01:03:43.787Z,2.09
2022-12-09T01:06:14.312Z,2.17
2022-12-09T01:08:42.845Z,2.09
2022-12-09T01:11:16.447Z,2.15
2022-12-09T01:13:42.850Z,2.15
2022-12-09T01:16:24.755Z,2.17
2022-12-09T01:18:53.288Z,2.13
2022-12-09T01:21:19.812Z,2.15
2022-12-09T01:23:46.621Z,2.12
2022-12-09T01:26:13.348Z,2.10
2022-12-09T01:28:40.268Z,2.11
2022-12-09T01:31:15.686Z,2.08
2022-12-09T01:33:43.517Z,2.17
2022-12-09T01:36:13.788Z,2.13
2022-12-09T01:38:41.232Z,2.17
2022-12-09T01:41:07.804Z,2.12
2022-12-09T01:43:34.474Z,2.09
2022-12-09T01:46:00.864Z,2.08
2022-12-09T01:48:31.637Z,2.18
2022-12-09T01:51:03.323Z,2.15
2022-12-09T01:53:35.409Z,2.20
2022-12-09T01:56:07.260Z,2.22
2022-12-09T01:58:33.871Z,2.24
2022-12-09T02:01:00.689Z,2.25
2022-12-09T02:03:27.268Z,2.21
2022-12-09T02:05:54.071Z,2.18
2022-12-09T02:08:20.711Z,2.19
2022-12-09T02:11:16.092Z,2.13
2022-12-09T02:14:18.098Z,2.19
2022-12-09T02:17:17.145Z,2.22
2022-12-09T02:20:10.009Z,2.26
2022-12-09T02:22:49.917Z,2.26
2022-12-09T02:25:28.993Z,2.25
2022-12-09T02:28:13.991Z,2.26
2022-12-09T02:30:52.183Z,2.28
2022-12-09T02:33:40.795Z,2.28
2022-12-09T02:36:16.716Z,2.31
2022-12-09T02:38:45.054Z,2.28
2022-12-09T02:41:33.653Z,2.22
2022-12-09T02:44:12.447Z,2.15
2022-12-09T02:46:41.125Z,2.17
2022-12-09T02:49:10.840Z,2.11
2022-12-09T02:51:42.202Z,2.18
2022-12-09T02:54:17.237Z,2.14
2022-12-09T02:56:51.829Z,2.19
2022-12-09T02:59:18.586Z,2.17
2022-12-09T03:01:51.233Z,2.21
2022-12-09T03:04:22.994Z,2.23
2022-12-09T03:06:54.846Z,2.18
2022-12-09T03:09:25.997Z,2.19
2022-12-09T03:11:55.187Z,2.16
2022-12-09T03:14:36.108Z,2.15
2022-12-09T03:17:21.160Z,2.09
2022-12-09T03:19:52.782Z,2.11
2022-12-09T03:22:24.172Z,2.16
2022-12-09T03:24:57.705Z,2.12
2022-12-09T03:27:33.684Z,2.13
2022-12-09T03:30:03.292Z,2.07
2022-12-09T03:32:31.846Z,2.03
2022-12-09T03:35:04.600Z,2.03
2022-12-09T03:37:33.009Z,2.06
2022-12-09T03:40:00.701Z,1.99
2022-12-09T03:42:36.194Z,2.04
2022-12-09T03:45:09.663Z,1.95
2022-12-09T03:47:37.079Z,1.99
2022-12-09T03:50:06.599Z,2.00
2022-12-09T03:52:47.714Z,2.02
2022-12-09T03:55:33.842Z,2.03
2022-12-09T03:58:03.534Z,1.98
2022-12-09T04:00:31.117Z,1.92
2022-12-09T04:02:57.628Z,1.86
2022-12-09T04:05:24.448Z,1.93
2022-12-09T04:07:51.118Z,1.95
2022-12-09T04:10:17.566Z,1.93
2022-12-09T04:12:43.986Z,1.86
2022-12-09T04:15:10.590Z,1.94
2022-12-09T04:17:37.063Z,1.88
2022-12-09T04:20:04.135Z,1.95
2022-12-09T04:22:30.681Z,1.94
2022-12-09T04:24:57.332Z,1.94
2022-12-09T04:27:23.882Z,1.95
2022-12-09T04:29:50.638Z,1.94
2022-12-09T04:32:17.170Z,1.90
2022-12-09T04:34:44.184Z,1.92
2022-12-09T04:37:10.607Z,1.88
2022-12-09T04:39:37.853Z,1.89
2022-12-09T04:42:04.218Z,1.97
2022-12-09T04:44:31.036Z,1.89
2022-12-09T04:46:57.733Z,1.85
2022-12-09T04:49:24.444Z,1.82
2022-12-09T04:51:51.007Z,1.89
2022-12-09T04:54:17.394Z,1.90
2022-12-09T04:56:44.488Z,1.83
2022-12-09T04:59:11.095Z,1.77
2022-12-09T05:01:37.912Z,1.75
2022-12-09T05:04:04.877Z,1.76
2022-12-09T05:06:32.065Z,1.83
2022-12-09T05:08:58.846Z,1.80
2022-12-09T05:11:25.956Z,1.79
2022-12-09T05:13:56.027Z,1.78
2022-12-09T05:16:23.188Z,1.79
2022-12-09T05:18:50.018Z,1.85
2022-12-09T05:21:18.797Z,1.79
2022-12-09T05:23:46.487Z,1.74
2022-12-09T05:26:15.451Z,1.78
2022-12-09T05:28:42.474Z,1.77
2022-12-09T05:31:15.535Z,1.78
2022-12-09T05:33:43.223Z,1.75
2022-12-09T05:36:11.229Z,1.77
2022-12-09T05:38:38.250Z,1.80
2022-12-09T05:41:05.333Z,1.79
2022-12-09T05:43:33.353Z,1.75
2022-12-09T05:46:01.840Z,1.78
2022-12-09T05:48:28.736Z,1.79
2022-12-09T05:51:07.481Z,1.74
2022-12-09T05:53:34.628Z,1.59
2022-12-09T05:56:02.092Z,1.60
2022-12-09T05:58:28.915Z,1.57
2022-12-09T06:00:58.037Z,1.55
2022-12-09T06:03:25.440Z,1.54
2022-12-09T06:05:52.378Z,1.54
2022-12-09T06:08:19.064Z,1.50
2022-12-09T06:10:46.287Z,1.54
2022-12-09T06:13:12.840Z,1.54
2022-12-09T06:15:40.384Z,1.48
2022-12-09T06:18:07.178Z,1.46
2022-12-09T06:20:33.729Z,1.45
2022-12-09T06:23:00.166Z,1.39
2022-12-09T06:25:26.830Z,1.36
2022-12-09T06:27:53.892Z,1.39
2022-12-09T06:30:20.627Z,1.39
2022-12-09T06:32:47.568Z,1.38
2022-12-09T06:35:15.198Z,1.37
2022-12-09T06:37:42.349Z,1.37
2022-12-09T06:40:09.406Z,1.39
2022-12-09T06:42:36.431Z,1.41
2022-12-09T06:45:03.812Z,1.42
2022-12-09T06:47:30.477Z,1.48
2022-12-09T06:50:04.390Z,1.43
2022-12-09T06:52:32.900Z,1.37
2022-12-09T06:54:59.448Z,1.36
2022-12-09T06:57:26.248Z,1.35
2022-12-09T06:59:53.058Z,1.35
2022-12-09T07:02:19.762Z,1.39
2022-12-09T07:04:46.886Z,1.43
2022-12-09T07:07:15.134Z,1.43
2022-12-09T07:09:41.936Z,1.48
2022-12-09T07:12:08.616Z,1.44
2022-12-09T07:14:36.365Z,1.41
2022-12-09T07:17:03.879Z,1.42
2022-12-09T07:19:31.359Z,1.41
2022-12-09T07:21:58.040Z,1.40
2022-12-09T07:24:25.426Z,1.41
2022-12-09T07:26:52.628Z,1.43
2022-12-09T07:29:19.494Z,1.48
2022-12-09T07:31:47.661Z,1.44
2022-12-09T07:34:14.513Z,1.48
2022-12-09T07:36:41.509Z,1.49
2022-12-09T07:39:12.186Z,1.54
2022-12-09T07:41:40.035Z,1.52
2022-12-09T07:44:06.845Z,1.51
2022-12-09T07:46:33.446Z,1.55
2022-12-09T07:49:02.777Z,1.54
2022-12-09T07:51:29.620Z,1.54
2022-12-09T07:53:57.136Z,1.51
2022-12-09T07:56:24.776Z,1.56
2022-12-09T07:58:53.160Z,1.56
2022-12-09T08:01:29.382Z,1.59
2022-12-09T08:03:56.750Z,1.60
2022-12-09T08:06:27.258Z,1.62
2022-12-09T08:08:54.994Z,1.64
2022-12-09T08:11:27.468Z,1.64
2022-12-09T08:13:57.656Z,1.64
2022-12-09T08:16:25.232Z,1.66
2022-12-09T08:18:53.735Z,1.66
2022-12-09T08:21:25.578Z,1.67
2022-12-09T08:23:52.844Z,1.70
2022-12-09T08:26:22.686Z,1.75
2022-12-09T08:28:50.416Z,1.75
2022-12-09T08:31:20.869Z,1.76
2022-12-09T08:33:48.370Z,1.80
2022-12-09T08:36:19.757Z,1.79
2022-12-09T08:38:47.480Z,1.77
2022-12-09T08:41:21.516Z,1.79
2022-12-09T08:43:48.570Z,1.79
2022-12-09T08:46:15.470Z,1.78
2022-12-09T08:48:42.841Z,1.78
2022-12-09T08:51:11.571Z,1.77
2022-12-09T08:53:38.516Z,1.74
2022-12-09T08:56:12.873Z,1.78
2022-12-09T08:58:40.352Z,1.80
2022-12-09T09:01:07.259Z,1.81
2022-12-09T09:03:34.319Z,1.80
2022-12-09T09:06:09.191Z,1.90
2022-12-09T09:08:37.411Z,1.79
2022-12-09T09:11:10.403Z,1.86
2022-12-09T09:13:39.239Z,1.92
2022-12-09T09:16:10.522Z,1.93
2022-12-09T09:18:37.688Z,1.93
2022-12-09T09:21:06.259Z,1.97
2022-12-09T09:23:32.678Z,1.96
2022-12-09T09:25:59.169Z,1.90
2022-12-09T09:28:30.686Z,1.95
2022-12-09T09:31:03.280Z,1.99
2022-12-09T09:33:30.756Z,2.00
2022-12-09T09:36:02.791Z,2.04
2022-12-09T09:38:35.387Z,2.01
2022-12-09T09:41:07.605Z,2.02
2022-12-09T09:43:38.996Z,2.08
2022-12-09T09:46:06.257Z,2.10
2022-12-09T09:48:35.932Z,2.08
2022-12-09T09:51:14.512Z,2.11
2022-12-09T09:53:42.418Z,2.15
2022-12-09T09:56:36.959Z,2.15
2022-12-09T09:59:06.544Z,2.16
2022-12-09T10:01:35.735Z,2.17
2022-12-09T10:04:33.706Z,2.23
2022-12-09T10:07:15.987Z,2.28
2022-12-09T10:09:53.196Z,2.32
2022-12-09T10:12:30.541Z,2.37
2022-12-09T10:15:09.663Z,2.39
2022-12-09T10:17:49.176Z,2.46
2022-12-09T10:20:21.228Z,2.47
2022-12-09T10:23:01.048Z,2.48
2022-12-09T10:25:31.073Z,2.44
2022-12-09T10:28:12.892Z,2.48
2022-12-09T10:30:43.878Z,2.45
2022-12-09T10:33:17.401Z,2.46
2022-12-09T10:35:45.145Z,2.47
2022-12-09T10:38:16.203Z,2.52
2022-12-09T10:40:45.954Z,2.56
2022-12-09T10:43:37.401Z,2.57
2022-12-09T10:46:20.089Z,2.61
2022-12-09T10:48:47.788Z,2.62
2022-12-09T10:51:25.965Z,2.65
2022-12-09T10:54:03.502Z,2.63
2022-12-09T10:56:35.817Z,2.65
2022-12-09T10:59:11.617Z,2.64
2022-12-09T11:01:53.165Z,2.60
2022-12-09T11:04:36.809Z,2.59
2022-12-09T11:07:13.094Z,2.48
2022-12-09T11:09:43.789Z,2.45
2022-12-09T11:12:27.344Z,2.48
2022-12-09T11:14:57.737Z,2.43
2022-12-09T11:18:04.313Z,2.42
2022-12-09T11:20:33.694Z,2.42
2022-12-09T11:23:12.374Z,2.44
2022-12-09T11:25:51.832Z,2.44
2022-12-09T11:28:18.167Z,2.46
2022-12-09T11:31:32.725Z,2.49
2022-12-09T11:34:06.778Z,2.51
2022-12-09T11:36:40.357Z,2.51
2022-12-09T11:39:29.278Z,2.64
2022-12-09T11:42:18.902Z,2.64
2022-12-09T11:45:02.334Z,2.70
2022-12-09T11:48:13.503Z,2.71
2022-12-09T11:50:31.311Z,2.75
2022-12-09T11:53:12.982Z,2.79
2022-12-09T11:55:51.061Z,2.79
2022-12-09T11:58:29.443Z,2.73
2022-12-09T12:01:02.690Z,2.72
2022-12-09T12:03:42.206Z,2.79
2022-12-09T12:06:17.641Z,2.92
2022-12-09T12:08:49.666Z,3.03
2022-12-09T12:11:21.039Z,3.10
2022-12-09T12:13:50.603Z,3.14
2022-12-09T12:16:39.488Z,3.13
2022-12-09T12:19:17.338Z,3.10
2022-12-09T12:21:55.683Z,3.18
2022-12-09T12:24:59.599Z,3.16
2022-12-09T12:27:59.883Z,3.20
2022-12-09T12:30:39.555Z,3.11
2022-12-09T12:36:33.574Z,3.02
2022-12-09T12:39:19.561Z,3.03
2022-12-09T12:42:06.947Z,2.82
2022-12-09T12:45:20.090Z,2.85
2022-12-09T12:48:03.274Z,2.94
2022-12-09T12:50:55.575Z,2.92
2022-12-09T12:53:34.434Z,2.84
2022-12-09T12:56:27.671Z,2.89
2022-12-09T12:59:09.720Z,2.76
2022-12-09T13:01:51.651Z,2.76
2022-12-09T13:04:34.039Z,2.71
2022-12-09T13:07:09.653Z,2.79
2022-12-09T13:09:51.124Z,2.83
2022-12-09T13:12:45.273Z,2.91
2022-12-09T13:15:16.746Z,2.91
2022-12-09T13:17:45.918Z,2.93
2022-12-09T13:20:24.880Z,2.83
2022-12-09T13:23:01.643Z,2.96
2022-12-09T13:25:46.298Z,2.95
2022-12-09T13:28:37.058Z,3.00
2022-12-09T13:31:08.995Z,2.97
2022-12-09T13:33:50.302Z,2.99
2022-12-09T13:36:36.290Z,3.02
2022-12-09T13:39:03.918Z,3.01
2022-12-09T13:41:30.183Z,3.01
2022-12-09T13:44:12.732Z,3.05
2022-12-09T13:46:42.620Z,2.97
2022-12-09T13:49:11.155Z,2.91
2022-12-09T13:51:51.582Z,2.90
2022-12-09T13:54:24.585Z,2.87
2022-12-09T13:57:40.313Z,2.89
2022-12-09T14:00:15.079Z,2.91
2022-12-09T14:03:00.178Z,2.91
2022-12-09T14:05:30.079Z,2.87
2022-12-09T14:08:04.572Z,2.85
2022-12-09T14:10:43.365Z,2.75
2022-12-09T14:13:29.717Z,2.62
2022-12-09T14:16:17.117Z,2.72
2022-12-09T14:18:44.421Z,2.67
2022-12-09T14:21:19.648Z,2.68
2022-12-09T14:24:07.871Z,2.53
2022-12-09T14:26:39.497Z,2.53
2022-12-09T14:29:05.932Z,2.54
2022-12-09T14:32:02.084Z,2.53
2022-12-09T14:34:35.387Z,2.48
2022-12-09T14:37:34.232Z,2.37
2022-12-09T14:40:25.117Z,2.29
2022-12-09T14:42:59.956Z,2.25
2022-12-09T14:45:38.179Z,2.23
2022-12-09T14:48:10.495Z,2.21
2022-12-09T14:50:38.630Z,2.21
2022-12-09T14:53:18.284Z,2.16
2022-12-09T14:55:44.838Z,2.12
2022-12-09T14:58:19.895Z,2.08
2022-12-09T15:00:46.641Z,2.03
2022-12-09T15:03:42.788Z,1.97
2022-12-09T15:06:12.718Z,1.88
2022-12-09T15:08:41.669Z,1.81
2022-12-09T15:11:13.590Z,1.75
2022-12-09T15:13:42.531Z,1.64
2022-12-09T15:16:14.594Z,1.60
2022-12-09T15:18:43.262Z,1.52
2022-12-09T15:21:10.147Z,1.47
2022-12-09T15:23:38.841Z,1.53
2022-12-09T15:26:07.854Z,1.46
2022-12-09T15:28:37.266Z,1.43
2022-12-09T15:31:16.292Z,1.39
2022-12-09T15:33:45.725Z,1.34
2022-12-09T15:36:22.096Z,1.29
2022-12-09T15:38:54.818Z,1.21
2022-12-09T15:41:40.616Z,1.17
2022-12-09T15:44:11.322Z,1.08
2022-12-09T15:46:40.649Z,1.06
2022-12-09T15:49:11.297Z,1.01
2022-12-09T15:51:40.363Z,0.94
2022-12-09T15:54:11.688Z,0.88
2022-12-09T15:57:00.908Z,0.88
2022-12-09T15:59:35.099Z,0.78
2022-12-09T16:02:01.844Z,0.78
2022-12-09T16:04:34.191Z,0.82
2022-12-09T16:07:08.651Z,0.86
2022-12-09T16:09:35.860Z,0.87
2022-12-09T16:12:02.341Z,0.90
2022-12-09T16:14:43.006Z,0.95
2022-12-09T16:17:24.660Z,1.02
2022-12-09T16:19:51.167Z,1.17
2022-12-09T16:22:25.035Z,1.19
2022-12-09T16:27:48.418Z,1.26
2022-12-09T16:30:23.605Z,1.22
2022-12-09T16:32:55.340Z,1.20
2022-12-09T16:35:43.324Z,1.26
2022-12-09T16:38:09.601Z,1.26
2022-12-09T16:40:45.141Z,1.19
2022-12-09T16:43:17.668Z,1.00
2022-12-09T16:45:51.205Z,0.97
2022-12-09T16:48:19.089Z,0.90
2022-12-09T16:50:53.038Z,0.95
2022-12-09T16:53:25.553Z,0.96
2022-12-09T16:55:55.239Z,0.73
2022-12-09T16:58:22.348Z,0.59
2022-12-09T17:00:49.598Z,0.50
2022-12-09T17:03:22.403Z,0.50
2022-12-09T17:05:48.752Z,0.49
2022-12-09T17:08:15.180Z,0.56
2022-12-09T17:10:42.266Z,0.44
2022-12-09T17:13:08.635Z,0.52
2022-12-09T17:15:35.059Z,0.37
2022-12-09T17:18:01.441Z,0.38
2022-12-09T17:20:27.796Z,0.37
2022-12-09T17:22:54.099Z,0.44
2022-12-09T17:25:20.401Z,0.46
2022-12-09T17:27:46.718Z,0.41
2022-12-09T17:30:13.380Z,0.43
2022-12-09T17:32:39.831Z,0.41
2022-12-09T17:35:12.352Z,0.42
2022-12-09T17:37:39.189Z,0.33
2022-12-09T17:40:05.791Z,0.37
2022-12-09T17:42:33.057Z,0.31
2022-12-09T17:44:59.419Z,0.28
2022-12-09T17:47:26.984Z,0.28
2022-12-09T17:49:53.277Z,0.33
2022-12-09T17:52:19.620Z,0.28
2022-12-09T17:54:47.350Z,0.19
2022-12-09T17:57:13.809Z,0.23
2022-12-09T17:59:40.169Z,0.19
2022-12-09T18:02:06.901Z,0.08
2022-12-09T18:04:33.288Z,0.19
2022-12-09T18:06:59.658Z,0.14
2022-12-09T18:09:26.033Z,0.17
2022-12-09T18:11:52.504Z,0.13
2022-12-09T18:14:20.323Z,0.13
2022-12-09T18:16:46.744Z,0.09
2022-12-09T18:19:16.371Z,0.01
2022-12-09T18:21:44.158Z,0.09
2022-12-09T18:24:10.691Z,0.10
2022-12-09T18:26:41.545Z,0.05
2022-12-09T18:29:08.198Z,0.07
2022-12-09T18:31:34.939Z,-0.03
2022-12-09T18:34:01.260Z,0.02
2022-12-09T18:36:28.745Z,0.04
2022-12-09T18:38:55.162Z,0.04
2022-12-09T18:41:24.220Z,0.09
2022-12-09T18:43:52.209Z,0.08
2022-12-09T18:46:25.380Z,0.13
2022-12-09T18:49:00.330Z,0.19
2022-12-09T18:51:27.904Z,0.23
2022-12-09T18:53:56.215Z,0.24
2022-12-09T18:56:22.531Z,0.24
2022-12-09T19:01:39.357Z,0.31
2022-12-09T19:04:08.557Z,0.27
2022-12-09T19:06:37.750Z,0.26
2022-12-09T19:09:09.028Z,0.31
2022-12-09T19:11:38.298Z,0.26
2022-12-09T19:14:07.212Z,0.30
2022-12-09T19:16:34.899Z,0.33
2022-12-09T19:19:08.777Z,0.32
2022-12-09T19:21:36.457Z,0.30
2022-12-09T19:24:02.780Z,0.30
2022-12-09T19:26:31.452Z,0.29
2022-12-09T19:29:01.276Z,0.35
2022-12-09T19:31:30.105Z,0.29
2022-12-09T19:34:01.740Z,0.26
2022-12-09T19:36:29.593Z,0.26
2022-12-09T19:38:57.873Z,0.28
2022-12-09T19:41:24.251Z,0.17
2022-12-09T19:43:55.310Z,0.24
2022-12-09T19:46:21.673Z,0.26
2022-12-09T19:48:48.083Z,0.28
2022-12-09T19:51:19.084Z,0.33
2022-12-09T19:53:47.525Z,0.32
2022-12-09T19:56:16.700Z,0.35
2022-12-09T19:58:43.805Z,0.37
2022-12-09T20:01:13.315Z,0.38
2022-12-09T20:03:41.521Z,0.35
2022-12-09T20:06:11.239Z,0.35
2022-12-09T20:08:38.704Z,0.35
2022-12-09T20:11:09.002Z,0.36
2022-12-09T20:13:35.378Z,0.37
2022-12-09T20:16:06.050Z,0.32
2022-12-09T20:18:32.469Z,0.36
2022-12-09T20:21:06.612Z,0.32
2022-12-09T20:23:35.327Z,0.32
2022-12-09T20:26:11.105Z,0.28
2022-12-09T20:28:39.732Z,0.27
2022-12-09T20:31:33.938Z,0.22
2022-12-09T20:34:03.025Z,0.16
2022-12-09T20:36:32.398Z,0.16
2022-12-09T20:39:02.060Z,0.20
2022-12-09T20:41:28.986Z,0.19
2022-12-09T20:43:57.352Z,0.25
2022-12-09T20:46:27.584Z,0.27
2022-12-09T20:48:54.695Z,0.28
2022-12-09T20:51:31.638Z,0.26
2022-12-09T20:53:58.732Z,0.25
2022-12-09T20:56:27.029Z,0.24
2022-12-09T20:58:54.753Z,0.23
2022-12-09T21:01:28.882Z,0.26
2022-12-09T21:03:57.513Z,0.25
2022-12-09T21:06:26.523Z,0.27
2022-12-09T21:08:53.731Z,0.28
2022-12-09T21:11:23.580Z,0.28
2022-12-09T21:13:52.356Z,0.27
2022-12-09T21:16:22.106Z,0.28
2022-12-09T21:18:50.066Z,0.28
2022-12-09T21:21:17.702Z,0.27
2022-12-09T21:23:44.250Z,0.26
2022-12-09T21:26:15.910Z,0.28
2022-12-09T21:28:43.874Z,0.26
2022-12-09T21:31:22.143Z,0.27
2022-12-09T21:33:50.256Z,0.28
2022-12-09T21:36:25.871Z,0.29
2022-12-09T21:38:53.247Z,0.25
2022-12-09T21:41:22.226Z,0.25
2022-12-09T21:43:48.758Z,0.25
2022-12-09T21:46:18.783Z,0.27
2022-12-09T21:48:51.962Z,0.27
2022-12-09T21:51:19.926Z,0.27
2022-12-09T21:53:46.895Z,0.27
2022-12-09T21:56:17.547Z,0.28
2022-12-09T21:58:45.522Z,0.28
2022-12-09T22:01:16.539Z,0.27
2022-12-09T22:03:43.394Z,0.30
2022-12-09T22:06:10.700Z,0.29
2022-12-09T22:08:38.553Z,0.29
2022-12-09T22:11:17.827Z,0.28
2022-12-09T22:13:44.772Z,0.27
2022-12-09T22:16:18.192Z,0.34
2022-12-09T22:18:45.090Z,0.29
2022-12-09T22:21:24.576Z,0.22
2022-12-09T22:23:57.907Z,0.25
2022-12-09T22:26:25.200Z,0.23
2022-12-09T22:28:52.887Z,0.20
2022-12-09T22:31:26.289Z,0.20
2022-12-09T22:33:54.920Z,0.20
2022-12-09T22:36:21.827Z,0.18
2022-12-09T22:38:48.769Z,0.13
2022-12-09T22:41:18.311Z,0.11
2022-12-09T22:43:45.061Z,0.04
2022-12-09T22:46:14.874Z,0.02
2022-12-09T22:48:42.031Z,0.02
2022-12-09T22:51:17.831Z,0.02
2022-12-09T22:53:45.011Z,0.03
2022-12-09T22:56:12.461Z,-0.01
2022-12-09T22:58:39.430Z,-0.03
2022-12-09T23:01:14.347Z,-0.03
2022-12-09T23:03:41.274Z,-0.34
2022-12-09T23:06:08.302Z,-0.45
2022-12-09T23:08:36.293Z,-0.33
2022-12-09T23:11:05.017Z,-0.33
2022-12-09T23:13:33.907Z,-0.29
2022-12-09T23:16:05.766Z,-0.30
2022-12-09T23:18:33.921Z,-0.32
2022-12-09T23:21:13.197Z,-0.37
2022-12-09T23:23:40.317Z,-0.35
2022-12-09T23:26:12.026Z,-0.33
2022-12-09T23:28:40.240Z,-0.35
2022-12-09T23:31:11.229Z,-0.35
2022-12-09T23:33:39.411Z,-0.36
2022-12-09T23:36:08.878Z,-0.39
2022-12-09T23:38:35.454Z,-0.41
2022-12-09T23:41:02.355Z,-0.45
2022-12-09T23:43:36.478Z,-0.47
2022-12-09T23:46:15.792Z,-0.43
2022-12-09T23:48:43.454Z,-0.45
2022-12-09T23:51:30.896Z,-0.41
2022-12-09T23:54:02.916Z,-0.43
2022-12-09T23:56:31.662Z,-0.49
2022-12-09T23:59:03.278Z,-0.49
